Espace membre
Imprimable
Auderghem, 29/10/2017, BEL - Trail Brussel
Liste des rapports > 28km - Classement
Recherche: Page: [1]
104 Entrées
 
Les réclamations ne sont plus acceptées, les résultats sont considérés comme définitifs.
RangNrNomAgeIOCEquipeRéelTempsTkmMoy.ScrLocalité
Vos photos grâce à Sportograf1.7ALSTEENS Luc43BEL1:52:501:52:514:02 14.895
Vos photos grâce à Sportograf2.2169CLERCKX Kris41BEL1:56:181:56:214:10 14.448BRUSSEL
Vos photos grâce à Sportograf3.2176GEIRNAERT Saïdja46BEL2:01:442:01:574:22 13.7820SINT ANDRIES
Vos photos grâce à Sportograf4.233LEMAIRE Ivan44BEL2:01:492:02:024:22 13.7721
Vos photos grâce à Sportograf5.235LIERMAN Steven42BEL2:02:532:03:014:24 13.6624
Vos photos grâce à Sportograf6.2183ANDRIES Nicolas40BEL2:07:132:07:254:34 13.1933MARCINELLE
Vos photos grâce à Sportograf7.231LAUWERS Günther41BEL2:07:482:07:594:35 13.1335
Vos photos grâce à Sportograf8.2164DELATTRE Luc48BEL2:07:442:08:114:35 13.1136
Vos photos grâce à Sportograf9.249MAERTEN Mattias41BEL2:08:222:08:334:36 13.0737
Vos photos grâce à Sportograf10.188HELLEMANNS Eric47BEL2:10:152:10:194:40 12.8943
Vos photos grâce à Sportograf11.2233HAULOT Eric43BEL2:10:112:10:274:40 12.8844BRUXELLES
Vos photos grâce à Sportograf12.74COPPIN Frank44BEL2:10:352:10:394:40 12.8645
Vos photos grâce à Sportograf13.327RUELLE Jean45BEL2:10:592:11:024:41 12.8247
Vos photos grâce à Sportograf14.370VAN CAMP Bjorn44BEL2:10:532:11:164:42 12.8049
Vos photos grâce à Sportograf15.221KONINKX Johan41BEL2:11:232:11:334:42 12.7750
Vos photos grâce à Sportograf16.2208LEBRUN Benoit42BEL2:12:232:12:354:45 12.6755PIÉTON
Vos photos grâce à Sportograf17.323ROMMELAERE Bjorn41BEL2:14:452:14:554:50 12.4562
Vos photos grâce à Sportograf18.2162DE PRIL Bjorn48BEL2:14:332:14:594:50 12.4564WELLE
Vos photos grâce à Sportograf19.373VAN DEN HENDE Gunther43BEL2:17:132:17:314:55 12.2277
Vos photos grâce à Sportograf20.293PEDRO Rosado46SPA2:17:542:18:224:57 12.1483
Vos photos grâce à Sportograf21.402VANDERPERREN Cédric46BEL2:18:322:18:344:57 12.1284
Vos photos grâce à Sportograf22.27BIASINO Fabrice40BEL2:19:402:19:425:00 12.0390
Vos photos grâce à Sportograf23.112DE WEERT Johan42BEL2:19:552:20:235:01 11.9792
Vos photos grâce à Sportograf24.135DEWAELE Tom47BEL2:21:272:21:515:04 11.8498
Vos photos grâce à Sportograf25.304PRIST Christian46BEL2:21:562:22:505:07 11.76106
Vos photos grâce à Sportograf26.2218COCQUEREAUX Eric43BEL2:22:032:23:045:07 11.74107RHODE-ST-GENÈSE
Vos photos grâce à Sportograf27.71CONCEIÇÃO Pedro41BEL2:23:272:24:065:09 11.66116
Vos photos grâce à Sportograf28.208SCHILTZ Frederic40BEL2:24:102:24:315:10 11.63120
Vos photos grâce à Sportograf29.191HENRIETTE Philippe46SWE2:25:072:25:075:11 11.58125
Vos photos grâce à Sportograf30.107DE LA HAYE Olaf41BEL2:24:582:25:445:13 11.53129
Vos photos grâce à Sportograf31.93DE BEER Christophe40BEL2:26:582:27:015:16 11.43138
Vos photos grâce à Sportograf32.2276MORTELMANS Frederik48BEL2:27:162:27:325:17 11.39143HEIST-OP-DEN-BERG
Vos photos grâce à Sportograf33.83CRAEN Hans41BEL2:27:372:27:555:17 11.36146
Vos photos grâce à Sportograf34.82CRAEN Frank47BEL2:28:282:28:465:19 11.29152
Vos photos grâce à Sportograf35.2216DROOGMANS Bjorn42BEL2:28:292:28:505:19 11.29154HOFSTADE
Vos photos grâce à Sportograf36.232LELEUX Eddy44FRA2:29:272:29:465:21 11.22159
Vos photos grâce à Sportograf37.422VIVIER Geoffrey42BEL2:29:382:30:195:23 11.18163
Vos photos grâce à Sportograf38.384VAN GEMERT Sven48BEL2:31:072:31:215:25 11.10170
Vos photos grâce à Sportograf39.116DEBRABANDERE Dominiek47BEL2:31:152:32:235:27 11.02176
Vos photos grâce à Sportograf40.174GONZALEZ Miguel49BEL2:32:382:32:455:28 11.00180
Vos photos grâce à Sportograf41.396VANDAMME Bjorn41BEL2:33:022:33:315:29 10.94190
Vos photos grâce à Sportograf42.183GUERRA DE SOUSA Joao Paulo46BEL2:33:372:33:395:30 10.93192
Vos photos grâce à Sportograf43.84CREMER Joel45BEL2:33:072:34:045:31 10.90194
Vos photos grâce à Sportograf44.322ROGET Philippe48BEL2:33:572:35:175:33 10.82199
Vos photos grâce à Sportograf45.117DECKERS Charles46BEL2:34:262:35:195:33 10.82200
Vos photos grâce à Sportograf46.2222DE HERDT Amaury42BEL2:34:412:35:255:34 10.81201
Vos photos grâce à Sportograf47.407VANORMELINGEN Geert43BEL2:35:112:35:275:34 10.81202
Vos photos grâce à Sportograf48.2369PERROTIN Romain45FRA2:35:542:35:565:35 10.77206UCCLE
Vos photos grâce à Sportograf49.40BRASSEUR Paul43BEL2:35:452:36:015:35 10.77207
Vos photos grâce à Sportograf50.275MORENO Olivier47BEL2:35:322:36:225:36 10.74209
Vos photos grâce à Sportograf51.425VOORHOF Geert47BEL2:36:212:36:375:36 10.73211
Vos photos grâce à Sportograf52.350STRUYF Jean-Sébastien49BEL2:36:402:37:075:37 10.69212
Vos photos grâce à Sportograf53.2118LAFONT Olivier46BEL2:36:402:37:385:38 10.66215WEMMEL
Vos photos grâce à Sportograf54.320RODRIGUEZ TÁPANES Javier42CUB2:37:482:37:525:39 10.64216
Vos photos grâce à Sportograf55.2223LERAT Frederic44BEL2:37:472:38:295:40 10.60220FALISOLLE
Vos photos grâce à Sportograf56.433WILLEM Alexandre41BEL2:38:042:38:385:40 10.59221
Vos photos grâce à Sportograf57.2165PHILIPPE Francois42BEL2:38:312:38:565:41 10.57224
Vos photos grâce à Sportograf58.162GEENS Michaël49BEL2:38:442:39:095:42 10.56226
Vos photos grâce à Sportograf59.2158NOCEDA Jose47ESP2:39:162:40:015:43 10.50231WOLUWE SAINT PIERRE
Vos photos grâce à Sportograf60.363TRIPOLI Maurizio44BEL2:39:532:40:535:45 10.44235
Vos photos grâce à Sportograf61.437ZADOW Matthew47BEL2:40:292:40:565:45 10.44236
Vos photos grâce à Sportograf62.349STOCKÉ David46BEL2:40:512:41:245:46 10.41238
Vos photos grâce à Sportograf63.103DE CREMER Kris48BEL2:41:572:42:085:48 10.36246
Vos photos grâce à Sportograf64.126DELLA FAILLE Gilles46BEL2:41:392:42:105:48 10.36247
Vos photos grâce à Sportograf65.115DE WOUTERS Frédéric45BEL2:41:522:42:245:48 10.35249
Vos photos grâce à Sportograf66.245LUCAS Frederic43FRA2:43:542:44:085:52 10.24266
Vos photos grâce à Sportograf67.376VAN DER HAEGEN Steven46BEL2:43:382:44:345:53 10.21269
Vos photos grâce à Sportograf68.10ANSLOT Laurent43BEL2:43:362:44:395:53 10.20270
Vos photos grâce à Sportograf69.199HUSDEN Jean-Francois46BEL2:44:012:45:045:54 10.18271
Vos photos grâce à Sportograf70.260MARTINS Samuel40BEL2:45:352:45:575:56 10.12275
Vos photos grâce à Sportograf71.151ELMECHALI David40FRA2:46:222:46:545:58 10.07279
Vos photos grâce à Sportograf72.378VAN DIJCK Nico47BEL2:47:062:47:356:00 10.03281
Vos photos grâce à Sportograf73.168GHEERAERT Christophe43BEL2:47:142:47:476:00 10.01284
Vos photos grâce à Sportograf74.306PRUVOST Olivier40BEL2:46:512:47:556:00 10.01286
Vos photos grâce à Sportograf75.2182ROGEN Philippe48FRA2:47:422:47:566:00 10.00288
Vos photos grâce à Sportograf76.334SCHOLLAERT Geoffrey40BEL2:47:492:48:226:01 9.98290
Vos photos grâce à Sportograf77.2245ENCKELS Serge43BEL2:48:252:49:166:03 9.93292ST-TRUIDEN
Vos photos grâce à Sportograf78.113DE WEIRDT Yves49BEL2:49:112:49:206:03 9.92294
Vos photos grâce à Sportograf79.388VAN SOEST Lennard47NLD2:48:412:49:266:04 9.92297
Vos photos grâce à Sportograf80.141DOMS Michel49BEL2:48:382:49:376:04 9.90299
Vos photos grâce à Sportograf81.125DELGADO Pablo43SPA2:50:112:50:186:05 9.87300
Vos photos grâce à Sportograf82.226LANDELOOS Bernard44BEL2:50:372:50:536:07 9.83304
Vos photos grâce à Sportograf83.256MARGODT Dave41BEL2:50:362:51:156:07 9.81306
Vos photos grâce à Sportograf84.336SEMPO Xavier42BEL2:51:342:51:516:09 9.78307
Vos photos grâce à Sportograf85.54CARL Simon48GBR2:52:032:52:116:09 9.76309
Vos photos grâce à Sportograf86.128DEMORE Philippe49FRA2:54:062:54:196:14 9.64316
Vos photos grâce à Sportograf87.47BUEDTS Tom40BEL2:54:592:56:036:18 9.54324
Vos photos grâce à Sportograf88.134DEVILLET Stephane45FRA2:58:583:00:046:26 9.33334
Vos photos grâce à Sportograf89.335SEALS Alex40USA3:02:123:02:586:33 9.18347
Vos photos grâce à Sportograf90.111DE VOS Bruno48BEL3:02:363:03:216:33 9.16349
Vos photos grâce à Sportograf91.416VERGOUWEN Kris46BEL3:04:283:05:016:37 9.08356
Vos photos grâce à Sportograf92.308RAMAULT Kris45BEL3:05:043:06:006:39 9.03360
Vos photos grâce à Sportograf93.2249COOMAN Christophe47BEL3:05:243:06:036:39 9.03363MALDEGEM
Vos photos grâce à Sportograf94.225LAMBOT Benoit46BEL3:06:553:07:106:42 8.98367
Vos photos grâce à Sportograf95.131DESTRAIS Pascal47BEL3:07:413:07:466:43 8.95368
Vos photos grâce à Sportograf96.2246FRISSON Benoit47BEL3:13:473:15:116:59 8.61391WOLUWE SAINT PIERRE
Vos photos grâce à Sportograf97.223LAIR Benoit45BEL3:16:183:17:237:03 8.51398
Vos photos grâce à Sportograf98.152ENDENBURG Raymond46NLD3:17:133:18:187:05 8.47399
Vos photos grâce à Sportograf99.16BAUDOUX Vincent48BEL3:18:463:19:327:08 8.42400
Vos photos grâce à Sportograf100.121DEKEYSER Freddy43BEL3:26:223:27:047:24 8.11414
Vos photos grâce à Sportograf101.100DE CNOP Laurent44BEL3:26:243:27:047:24 8.11415
Vos photos grâce à Sportograf102.2179GEERINCKX Diederick42BEL3:29:043:29:477:30 8.01418
Vos photos grâce à Sportograf103.80COUVREUR Christophe49BEL3:56:533:57:148:29 7.08428
Vos photos grâce à SportografDNF149EDWARDS Lawrence43BEL
DNF: abandon; DSQ: disqualifié; Vitesse en km/h
Page: [1]